Time;durP1;ratioP1;P1;durP2;ratioP2;P2;SDS_P1;SDS_P2;PMS_P1;PMS_P2;Temp;Humidity;BMP_temperature;BMP_pressure;BME280_temperature;BME280_humidity;BME280_pressure;Samples;Min_cycle;Max_cycle;Signal;HPM_P1;HPM_P2
2022/06/14 00:03:21;;;;;;;;;;;18.60;77.30;;;;;;5042072;28;19921;-79
2022/06/14 00:05:50;;;;;;;;;;;18.60;77.40;;;;;;5063424;28;19928;-79
2022/06/14 00:08:17;;;;;;;;;;;18.50;77.30;;;;;;5085768;28;19924;-81
2022/06/14 00:10:44;;;;;;;;;;;18.50;77.40;;;;;;5081970;28;19927;-82
2022/06/14 00:13:12;;;;;;;;;;;18.50;77.50;;;;;;5070627;28;20290;-82
2022/06/14 00:15:41;;;;;;;;;;;18.40;77.50;;;;;;5084685;28;20145;-82
2022/06/14 00:18:09;;;;;;;;;;;18.40;77.70;;;;;;5085765;28;19978;-82
2022/06/14 00:20:38;;;;;;;;;;;18.40;77.60;;;;;;5087197;28;20134;-82
2022/06/14 00:23:07;;;;;;;;;;;18.40;77.80;;;;;;5091010;28;20002;-82
2022/06/14 00:25:36;;;;;;;;;;;18.40;77.80;;;;;;5088042;28;20042;-81
2022/06/14 00:28:03;;;;;;;;;;;18.30;77.60;;;;;;5092163;28;19927;-81
2022/06/14 00:30:31;;;;;;;;;;;18.30;77.70;;;;;;5090195;28;20031;-82
2022/06/14 00:32:58;;;;;;;;;;;18.30;77.70;;;;;;5089917;28;19928;-82
2022/06/14 00:35:25;;;;;;;;;;;18.20;77.70;;;;;;5092425;28;20014;-81
2022/06/14 00:37:52;;;;;;;;;;;18.20;77.80;;;;;;5091333;28;19924;-80
2022/06/14 00:40:29;;;;;;;;;;;18.20;77.90;;;;;;5090383;28;19924;-79
2022/06/14 00:42:56;;;;;;;;;;;18.10;77.80;;;;;;5089489;28;20023;-79
2022/06/14 00:45:42;;;;;;;;;;;18.10;77.70;;;;;;5092888;28;20374;-80
2022/06/14 00:48:12;;;;;;;;;;;18.10;77.80;;;;;;5089873;28;19924;-80
2022/06/14 00:50:44;;;;;;;;;;;18.10;77.90;;;;;;5088564;28;19935;-79
2022/06/14 00:53:14;;;;;;;;;;;18.00;77.80;;;;;;5089986;28;19924;-81
2022/06/14 00:55:43;;;;;;;;;;;18.00;77.90;;;;;;5087400;28;19958;-79
2022/06/14 00:58:11;;;;;;;;;;;17.90;77.80;;;;;;5072431;28;19931;-80
2022/06/14 01:00:41;;;;;;;;;;;17.90;77.90;;;;;;5072041;28;20383;-79
2022/06/14 01:03:14;;;;;;;;;;;17.90;77.90;;;;;;5085160;28;20022;-80
2022/06/14 01:08:27;;;;;;;;;;;17.90;78.10;;;;;;5088317;28;19928;-79
2022/06/14 01:10:56;;;;;;;;;;;17.80;78.10;;;;;;5092842;28;20303;-80
2022/06/14 01:13:23;;;;;;;;;;;17.80;78.10;;;;;;5064032;28;20317;-80
2022/06/14 01:15:50;;;;;;;;;;;17.80;78.20;;;;;;5070146;28;19974;-79
2022/06/14 01:18:17;;;;;;;;;;;17.80;78.30;;;;;;5089578;28;19935;-80
2022/06/14 01:20:45;;;;;;;;;;;17.70;78.20;;;;;;5090630;28;19924;-80
2022/06/14 01:23:15;;;;;;;;;;;17.70;78.20;;;;;;5087312;28;19924;-79
2022/06/14 01:25:43;;;;;;;;;;;17.70;78.40;;;;;;5086738;28;19943;-80
2022/06/14 01:28:10;;;;;;;;;;;17.70;78.30;;;;;;5089141;28;19928;-80
2022/06/14 01:30:42;;;;;;;;;;;17.60;78.30;;;;;;5089284;28;19939;-79
2022/06/14 01:33:14;;;;;;;;;;;17.60;78.40;;;;;;5083870;28;19930;-79
2022/06/14 01:35:43;;;;;;;;;;;17.60;78.30;;;;;;5089450;28;19932;-79
2022/06/14 01:38:12;;;;;;;;;;;17.50;78.30;;;;;;5091338;28;19969;-79
2022/06/14 01:40:52;;;;;;;;;;;17.50;78.40;;;;;;5087129;28;20354;-79
2022/06/14 01:43:32;;;;;;;;;;;17.50;78.50;;;;;;5081100;28;20383;-79
2022/06/14 01:46:03;;;;;;;;;;;17.50;78.60;;;;;;5085292;28;19932;-79
2022/06/14 01:48:31;;;;;;;;;;;17.40;78.60;;;;;;5086191;28;20307;-79
2022/06/14 01:53:49;;;;;;;;;;;17.40;78.70;;;;;;5071074;28;19928;-82
2022/06/14 01:56:21;;;;;;;;;;;17.40;78.80;;;;;;5086011;28;19956;-81
2022/06/14 01:58:54;;;;;;;;;;;17.30;78.70;;;;;;5094758;28;20538;-82
2022/06/14 02:01:29;;;;;;;;;;;17.30;78.70;;;;;;5062133;28;19954;-81
2022/06/14 02:06:50;;;;;;;;;;;17.20;78.80;;;;;;5084521;28;19943;-81
2022/06/14 02:09:18;;;;;;;;;;;17.20;78.80;;;;;;5068479;28;19929;-82
2022/06/14 02:11:46;;;;;;;;;;;17.20;78.90;;;;;;5086025;28;19932;-80
2022/06/14 02:14:19;;;;;;;;;;;17.20;78.90;;;;;;5085422;28;19956;-81
2022/06/14 02:16:48;;;;;;;;;;;17.10;78.90;;;;;;5086166;28;19924;-82
2022/06/14 02:19:19;;;;;;;;;;;17.10;78.80;;;;;;5087004;28;20419;-81
2022/06/14 02:21:47;;;;;;;;;;;17.10;78.80;;;;;;5063933;28;19933;-81
2022/06/14 02:24:19;;;;;;;;;;;17.00;78.80;;;;;;5072103;28;19930;-81
2022/06/14 02:26:51;;;;;;;;;;;17.00;78.90;;;;;;5070975;28;19932;-82
2022/06/14 02:29:21;;;;;;;;;;;17.00;78.90;;;;;;5089607;28;19924;-82
2022/06/14 02:31:51;;;;;;;;;;;17.00;79.00;;;;;;5067018;28;20343;-82
2022/06/14 02:34:21;;;;;;;;;;;17.00;79.00;;;;;;5088503;28;19969;-79
2022/06/14 02:36:52;;;;;;;;;;;16.90;78.90;;;;;;5071743;28;20006;-79
2022/06/14 02:39:22;;;;;;;;;;;16.90;79.00;;;;;;5067674;28;20019;-79
2022/06/14 02:42:06;;;;;;;;;;;16.90;79.00;;;;;;5088593;28;19924;-82
2022/06/14 02:44:37;;;;;;;;;;;16.90;79.10;;;;;;5087968;28;19928;-82
2022/06/14 02:47:08;;;;;;;;;;;16.80;79.00;;;;;;5088779;28;20274;-82
2022/06/14 02:49:38;;;;;;;;;;;16.80;79.00;;;;;;5065992;28;19924;-81
2022/06/14 02:52:07;;;;;;;;;;;16.80;79.10;;;;;;5082491;28;19928;-81
2022/06/14 02:54:35;;;;;;;;;;;16.80;79.10;;;;;;5088704;28;19930;-81
2022/06/14 02:57:11;;;;;;;;;;;16.70;79.00;;;;;;5088630;28;19981;-81
2022/06/14 02:59:40;;;;;;;;;;;16.70;79.10;;;;;;5086531;28;19955;-81
2022/06/14 03:02:09;;;;;;;;;;;16.70;78.50;;;;;;5087262;28;20042;-81
2022/06/14 03:04:39;;;;;;;;;;;16.70;79.10;;;;;;5072784;28;19932;-81
2022/06/14 03:07:10;;;;;;;;;;;16.60;78.90;;;;;;5089990;28;20398;-81
2022/06/14 03:09:40;;;;;;;;;;;16.60;79.00;;;;;;5083789;28;20385;-81
2022/06/14 03:12:14;;;;;;;;;;;16.60;79.00;;;;;;5068015;28;20309;-81
2022/06/14 03:14:49;;;;;;;;;;;16.60;79.10;;;;;;5087750;28;20014;-82
2022/06/14 03:17:21;;;;;;;;;;;16.50;79.10;;;;;;5067823;28;19982;-81
2022/06/14 03:19:52;;;;;;;;;;;16.50;79.00;;;;;;5069486;28;19932;-81
2022/06/14 03:22:22;;;;;;;;;;;16.50;78.90;;;;;;5085243;28;19935;-82
2022/06/14 03:24:53;;;;;;;;;;;16.40;78.90;;;;;;5091427;28;20397;-81
2022/06/14 03:27:27;;;;;;;;;;;16.40;78.80;;;;;;5088215;28;19973;-81
2022/06/14 03:29:57;;;;;;;;;;;16.40;78.80;;;;;;5088137;28;19974;-81
2022/06/14 03:32:31;;;;;;;;;;;16.40;78.90;;;;;;5082847;28;20329;-81
2022/06/14 03:35:02;;;;;;;;;;;16.30;78.80;;;;;;5090670;28;20019;-81
2022/06/14 03:37:28;;;;;;;;;;;16.30;78.80;;;;;;5087410;28;19924;-81
2022/06/14 03:40:00;;;;;;;;;;;16.30;79.00;;;;;;5088285;28;19973;-80
2022/06/14 03:42:28;;;;;;;;;;;16.30;78.80;;;;;;5082929;28;19932;-80
2022/06/14 03:44:56;;;;;;;;;;;16.20;78.80;;;;;;5082848;28;19925;-80
2022/06/14 03:47:25;;;;;;;;;;;16.20;78.90;;;;;;5089471;28;19924;-80
2022/06/14 03:49:53;;;;;;;;;;;16.20;78.90;;;;;;5083897;28;19924;-80
2022/06/14 03:52:27;;;;;;;;;;;16.20;79.00;;;;;;5086331;28;19947;-80
2022/06/14 03:54:57;;;;;;;;;;;16.20;79.00;;;;;;5086190;28;20019;-80
2022/06/14 03:57:36;;;;;;;;;;;16.10;78.80;;;;;;5092492;28;19959;-80
2022/06/14 04:00:07;;;;;;;;;;;16.10;79.00;;;;;;5086613;28;19953;-80
2022/06/14 04:02:56;;;;;;;;;;;16.10;78.90;;;;;;5091101;28;20294;-80
2022/06/14 04:05:26;;;;;;;;;;;16.00;78.90;;;;;;5094350;28;19923;-80
2022/06/14 04:07:56;;;;;;;;;;;16.00;78.90;;;;;;5092516;28;19924;-80
2022/06/14 04:10:29;;;;;;;;;;;16.00;78.80;;;;;;5068586;28;19932;-80
2022/06/14 04:13:00;;;;;;;;;;;15.90;78.90;;;;;;5083437;28;19928;-79
2022/06/14 04:15:32;;;;;;;;;;;15.90;78.80;;;;;;5090548;28;19932;-80
2022/06/14 04:18:34;;;;;;;;;;;15.90;78.70;;;;;;5090746;28;19931;-80
2022/06/14 04:20:56;;;;;;;;;;;15.90;78.90;;;;;;5084219;28;19931;-80
2022/06/14 04:23:27;;;;;;;;;;;15.90;78.90;;;;;;5089085;28;19923;-81
2022/06/14 04:25:55;;;;;;;;;;;15.80;78.80;;;;;;5092886;28;19928;-80
2022/06/14 04:28:28;;;;;;;;;;;15.80;78.90;;;;;;5092124;28;19924;-81
2022/06/14 04:31:00;;;;;;;;;;;15.80;78.90;;;;;;5090124;28;19928;-80
2022/06/14 04:33:29;;;;;;;;;;;15.80;78.80;;;;;;5071460;28;19931;-80
2022/06/14 04:35:57;;;;;;;;;;;15.70;78.80;;;;;;5074164;28;19924;-80
2022/06/14 04:38:27;;;;;;;;;;;15.70;78.80;;;;;;5090227;28;19924;-80
2022/06/14 04:40:56;;;;;;;;;;;15.60;78.70;;;;;;5092993;28;19969;-80
2022/06/14 04:43:28;;;;;;;;;;;15.40;79.40;;;;;;5094535;28;19928;-80
2022/06/14 04:45:57;;;;;;;;;;;15.30;79.60;;;;;;5087782;28;19924;-80
2022/06/14 04:48:29;;;;;;;;;;;15.20;79.90;;;;;;5093861;28;19924;-80
2022/06/14 04:50:58;;;;;;;;;;;15.20;80.00;;;;;;5087718;28;20082;-80
2022/06/14 04:53:28;;;;;;;;;;;15.20;80.40;;;;;;5088875;28;19928;-80
2022/06/14 04:55:57;;;;;;;;;;;15.10;81.10;;;;;;5092168;28;19924;-80
2022/06/14 04:58:30;;;;;;;;;;;15.10;81.60;;;;;;5083765;28;20033;-80
2022/06/14 05:00:59;;;;;;;;;;;15.00;81.70;;;;;;5069926;28;20450;-80
2022/06/14 05:03:30;;;;;;;;;;;15.00;81.70;;;;;;5097258;28;19928;-80
2022/06/14 05:06:01;;;;;;;;;;;15.00;81.90;;;;;;5088183;28;20219;-80
2022/06/14 05:08:30;;;;;;;;;;;15.00;81.90;;;;;;5066039;28;19936;-80
2022/06/14 05:10:59;;;;;;;;;;;15.00;82.10;;;;;;5087277;28;19924;-80
2022/06/14 05:13:30;;;;;;;;;;;14.90;82.30;;;;;;5072749;28;20298;-80
2022/06/14 05:15:59;;;;;;;;;;;14.90;82.50;;;;;;5085124;28;20031;-80
2022/06/14 05:18:30;;;;;;;;;;;14.90;82.60;;;;;;5083078;28;20020;-80
2022/06/14 05:21:00;;;;;;;;;;;15.00;82.80;;;;;;5090493;28;19987;-80
2022/06/14 05:23:29;;;;;;;;;;;15.00;82.80;;;;;;5066710;28;19931;-80
2022/06/14 05:26:02;;;;;;;;;;;15.00;82.90;;;;;;5082259;28;19939;-80
2022/06/14 05:28:36;;;;;;;;;;;15.00;83.00;;;;;;5085659;28;19924;-80
2022/06/14 05:31:10;;;;;;;;;;;15.00;83.00;;;;;;5073132;28;20366;-80
2022/06/14 05:33:41;;;;;;;;;;;15.00;83.00;;;;;;5086725;28;20298;-80
2022/06/14 05:36:11;;;;;;;;;;;15.00;83.20;;;;;;5085129;28;19924;-80
2022/06/14 05:38:45;;;;;;;;;;;15.00;83.30;;;;;;5082760;28;19932;-80
2022/06/14 05:41:15;;;;;;;;;;;15.10;83.30;;;;;;5090555;28;20402;-80
2022/06/14 05:43:45;;;;;;;;;;;15.10;83.40;;;;;;5088571;28;19928;-80
2022/06/14 05:46:18;;;;;;;;;;;15.10;83.60;;;;;;5089335;28;19924;-80
2022/06/14 05:48:48;;;;;;;;;;;15.20;83.60;;;;;;5084718;28;20029;-80
2022/06/14 05:51:16;;;;;;;;;;;15.20;83.50;;;;;;5087858;28;19928;-80
2022/06/14 05:53:45;;;;;;;;;;;15.20;83.50;;;;;;5087667;28;19931;-80
2022/06/14 05:56:16;;;;;;;;;;;15.20;83.50;;;;;;5087303;28;19976;-80
2022/06/14 05:58:46;;;;;;;;;;;15.30;83.50;;;;;;5080428;28;19945;-80
2022/06/14 06:01:16;;;;;;;;;;;15.30;83.80;;;;;;5080837;28;19944;-80
2022/06/14 06:03:46;;;;;;;;;;;15.40;84.00;;;;;;5087211;28;19950;-80
2022/06/14 06:06:14;;;;;;;;;;;15.40;84.00;;;;;;5070273;28;19986;-80
2022/06/14 06:08:44;;;;;;;;;;;15.50;84.30;;;;;;5064681;28;19969;-80
2022/06/14 06:11:13;;;;;;;;;;;15.60;84.50;;;;;;5087717;28;19924;-80
2022/06/14 06:13:42;;;;;;;;;;;15.60;84.40;;;;;;5087197;28;20404;-80
2022/06/14 06:16:13;;;;;;;;;;;15.60;84.10;;;;;;5085850;28;19939;-80
2022/06/14 06:18:44;;;;;;;;;;;15.60;84.30;;;;;;5080163;28;19970;-80
2022/06/14 06:21:16;;;;;;;;;;;15.60;84.30;;;;;;5065602;28;19924;-80
2022/06/14 06:23:45;;;;;;;;;;;15.70;84.50;;;;;;5086291;28;19939;-80
2022/06/14 06:26:13;;;;;;;;;;;15.80;84.50;;;;;;5064430;28;20018;-80
2022/06/14 06:28:41;;;;;;;;;;;15.80;84.50;;;;;;5080022;28;20611;-80
2022/06/14 06:31:10;;;;;;;;;;;15.80;84.50;;;;;;5059979;28;19932;-80
2022/06/14 06:33:41;;;;;;;;;;;15.80;84.70;;;;;;5085168;28;19930;-80
2022/06/14 06:36:23;;;;;;;;;;;15.80;84.70;;;;;;5069177;28;19924;-80
2022/06/14 06:38:56;;;;;;;;;;;15.90;85.00;;;;;;5084273;28;19924;-80
2022/06/14 06:44:12;;;;;;;;;;;15.90;85.00;;;;;;5081470;28;19997;-80
2022/06/14 06:46:44;;;;;;;;;;;15.90;85.00;;;;;;5082501;28;20627;-80
2022/06/14 06:49:14;;;;;;;;;;;15.90;85.10;;;;;;5087120;28;19931;-80
2022/06/14 06:51:44;;;;;;;;;;;16.00;85.10;;;;;;5064572;28;19928;-80
2022/06/14 06:54:16;;;;;;;;;;;16.00;85.20;;;;;;5083023;28;19924;-80
2022/06/14 06:56:45;;;;;;;;;;;16.00;85.10;;;;;;5079750;28;19932;-80
2022/06/14 06:59:14;;;;;;;;;;;16.10;85.10;;;;;;5065227;28;19924;-80
2022/06/14 07:01:42;;;;;;;;;;;16.10;85.00;;;;;;5062429;28;19928;-80
2022/06/14 07:04:17;;;;;;;;;;;16.10;84.90;;;;;;5084203;28;19981;-79
2022/06/14 07:06:49;;;;;;;;;;;16.20;84.70;;;;;;5081079;28;19932;-79
2022/06/14 07:09:19;;;;;;;;;;;16.20;84.60;;;;;;5083642;28;19943;-80
2022/06/14 07:11:49;;;;;;;;;;;16.20;84.70;;;;;;5079947;28;19928;-80
2022/06/14 07:14:19;;;;;;;;;;;16.20;84.50;;;;;;5076505;28;19943;-80
2022/06/14 07:16:49;;;;;;;;;;;16.30;84.60;;;;;;5078948;28;19928;-79
2022/06/14 07:19:19;;;;;;;;;;;16.30;84.50;;;;;;5082757;28;19996;-79
2022/06/14 07:21:53;;;;;;;;;;;16.40;84.60;;;;;;5078955;28;19924;-80
2022/06/14 07:24:23;;;;;;;;;;;16.40;84.50;;;;;;5078325;28;19924;-80
2022/06/14 07:26:54;;;;;;;;;;;16.40;84.60;;;;;;5076158;28;19970;-79
2022/06/14 07:29:23;;;;;;;;;;;16.40;84.60;;;;;;5085605;28;19924;-79
2022/06/14 07:31:54;;;;;;;;;;;16.50;84.70;;;;;;5065827;28;19983;-80
2022/06/14 07:34:21;;;;;;;;;;;16.50;84.60;;;;;;5080151;28;19943;-79
2022/06/14 07:36:58;;;;;;;;;;;16.50;84.50;;;;;;5086543;28;19924;-80
2022/06/14 07:39:27;;;;;;;;;;;16.60;84.70;;;;;;5084084;28;20383;-80
2022/06/14 07:41:58;;;;;;;;;;;16.60;84.70;;;;;;5069230;28;20319;-79
2022/06/14 07:44:31;;;;;;;;;;;16.60;84.60;;;;;;5081636;28;19939;-80
2022/06/14 07:47:01;;;;;;;;;;;16.60;84.60;;;;;;5083565;28;20356;-79
2022/06/14 07:49:31;;;;;;;;;;;16.70;84.70;;;;;;5087037;28;19969;-79
2022/06/14 07:52:05;;;;;;;;;;;16.70;84.70;;;;;;5086148;28;19931;-79
2022/06/14 07:54:33;;;;;;;;;;;16.70;84.80;;;;;;5081936;28;19939;-79
2022/06/14 07:57:03;;;;;;;;;;;16.70;84.70;;;;;;5085692;28;20384;-78
2022/06/14 07:59:32;;;;;;;;;;;16.70;84.80;;;;;;5085039;28;19935;-79
2022/06/14 08:02:02;;;;;;;;;;;16.70;84.90;;;;;;5087899;28;20308;-80
2022/06/14 08:04:32;;;;;;;;;;;16.80;84.90;;;;;;5081642;28;19932;-79
2022/06/14 08:07:02;;;;;;;;;;;16.80;84.90;;;;;;5082153;28;20310;-80
2022/06/14 08:09:35;;;;;;;;;;;16.80;84.90;;;;;;5083159;28;19931;-79
2022/06/14 08:12:06;;;;;;;;;;;16.80;84.90;;;;;;5058949;28;19967;-79
2022/06/14 08:14:36;;;;;;;;;;;16.80;84.90;;;;;;5059855;28;20305;-79
2022/06/14 08:17:04;;;;;;;;;;;16.80;84.90;;;;;;5060620;28;19932;-79
2022/06/14 08:19:36;;;;;;;;;;;16.90;85.00;;;;;;5087703;28;19969;-80
2022/06/14 08:22:07;;;;;;;;;;;16.90;85.10;;;;;;5081153;28;19959;-80
2022/06/14 08:24:36;;;;;;;;;;;16.90;85.10;;;;;;5083969;28;20447;-80
2022/06/14 08:27:06;;;;;;;;;;;16.90;85.10;;;;;;5058890;28;19938;-82
2022/06/14 08:29:38;;;;;;;;;;;16.90;85.20;;;;;;5094243;28;20461;-81
2022/06/14 08:32:08;;;;;;;;;;;16.90;85.20;;;;;;5091299;28;19935;-84
2022/06/14 08:34:41;;;;;;;;;;;16.90;85.20;;;;;;5092162;28;19932;-84
2022/06/14 08:37:13;;;;;;;;;;;17.00;85.20;;;;;;5065478;28;19973;-80
2022/06/14 08:39:44;;;;;;;;;;;17.00;85.20;;;;;;5088073;28;19928;-80
2022/06/14 08:42:15;;;;;;;;;;;17.00;85.20;;;;;;5086744;28;20600;-81
2022/06/14 08:44:45;;;;;;;;;;;17.00;85.30;;;;;;5080513;28;19924;-79
2022/06/14 08:47:28;;;;;;;;;;;17.10;85.60;;;;;;5068742;28;19924;-78
2022/06/14 08:50:00;;;;;;;;;;;17.40;84.40;;;;;;5065338;28;19931;-78
2022/06/14 08:52:49;;;;;;;;;;;17.70;82.10;;;;;;5065613;28;20376;-79
2022/06/14 08:55:30;;;;;;;;;;;17.80;81.20;;;;;;5089890;28;20010;-79
2022/06/14 08:58:08;;;;;;;;;;;18.00;80.70;;;;;;5092188;28;19936;-78
2022/06/14 09:00:41;;;;;;;;;;;17.80;83.70;;;;;;5069085;28;19936;-80
2022/06/14 09:03:31;;;;;;;;;;;17.70;83.70;;;;;;5089560;28;19990;-81
2022/06/14 09:06:13;;;;;;;;;;;17.80;83.30;;;;;;5088913;28;19970;-82
2022/06/14 09:08:52;;;;;;;;;;;17.80;83.40;;;;;;5053364;28;19932;-82
2022/06/14 09:11:34;;;;;;;;;;;17.70;83.80;;;;;;5094521;28;19935;-82
2022/06/14 09:14:19;;;;;;;;;;;17.60;83.90;;;;;;5088889;28;19924;-81
2022/06/14 09:16:55;;;;;;;;;;;17.50;83.90;;;;;;5099345;28;19930;-82
2022/06/14 09:19:27;;;;;;;;;;;17.50;84.10;;;;;;5094977;28;19946;-81
2022/06/14 09:22:04;;;;;;;;;;;17.50;84.20;;;;;;5093110;28;20314;-81
2022/06/14 09:24:43;;;;;;;;;;;17.50;84.20;;;;;;5068224;28;20334;-82
2022/06/14 09:27:15;;;;;;;;;;;17.50;84.20;;;;;;5069571;28;19938;-81
2022/06/14 09:30:02;;;;;;;;;;;17.50;83.90;;;;;;5091925;28;19931;-82
2022/06/14 09:33:13;;;;;;;;;;;17.50;84.00;;;;;;5095347;28;20396;-81
2022/06/14 09:35:59;;;;;;;;;;;17.50;83.90;;;;;;5093011;28;20443;-81
2022/06/14 09:38:50;;;;;;;;;;;17.50;84.00;;;;;;5096792;28;19935;-81
2022/06/14 09:41:27;;;;;;;;;;;17.50;84.10;;;;;;5093584;28;19946;-82
2022/06/14 09:44:07;;;;;;;;;;;17.50;84.20;;;;;;5077018;28;19924;-81
2022/06/14 09:46:39;;;;;;;;;;;17.50;84.10;;;;;;5092226;28;19924;-82
2022/06/14 09:49:25;;;;;;;;;;;17.60;84.20;;;;;;5074137;28;20050;-81
2022/06/14 09:51:59;;;;;;;;;;;17.60;84.20;;;;;;5089359;28;20398;-82
2022/06/14 09:54:47;;;;;;;;;;;17.60;84.70;;;;;;5091193;28;19928;-81
2022/06/14 09:57:22;;;;;;;;;;;17.60;84.10;;;;;;5091968;28;19963;-82
2022/06/14 10:00:07;;;;;;;;;;;17.60;84.20;;;;;;5094136;28;20014;-82
2022/06/14 10:02:44;;;;;;;;;;;17.60;84.10;;;;;;5089253;28;19931;-81
2022/06/14 10:05:26;;;;;;;;;;;17.60;84.00;;;;;;5074077;28;19955;-82
2022/06/14 10:08:00;;;;;;;;;;;17.60;83.90;;;;;;5090489;28;19924;-82
2022/06/14 10:10:38;;;;;;;;;;;17.60;83.70;;;;;;5068572;28;19963;-81
2022/06/14 10:13:24;;;;;;;;;;;17.60;83.40;;;;;;5092425;28;19924;-82
2022/06/14 10:15:56;;;;;;;;;;;17.60;83.60;;;;;;5090709;28;19924;-82
2022/06/14 10:18:41;;;;;;;;;;;17.60;82.50;;;;;;5091523;28;19984;-82
2022/06/14 10:21:12;;;;;;;;;;;17.60;82.80;;;;;;5093485;28;19958;-81
2022/06/14 10:23:50;;;;;;;;;;;17.60;83.10;;;;;;5077623;28;19954;-82
2022/06/14 10:29:14;;;;;;;;;;;17.70;82.50;;;;;;5094567;28;19931;-81
2022/06/14 10:31:50;;;;;;;;;;;17.70;81.90;;;;;;5094495;28;19924;-82
2022/06/14 10:34:21;;;;;;;;;;;17.70;81.80;;;;;;5094394;28;19928;-82
2022/06/14 10:37:18;;;;;;;;;;;17.70;82.10;;;;;;5073314;28;19966;-81
2022/06/14 10:39:53;;;;;;;;;;;17.70;82.00;;;;;;5013690;28;19925;-82
2022/06/14 10:42:24;;;;;;;;;;;17.70;82.30;;;;;;5076599;28;19928;-82
2022/06/14 10:44:54;;;;;;;;;;;17.70;82.60;;;;;;5091331;28;19939;-82
2022/06/14 10:47:29;;;;;;;;;;;17.70;82.60;;;;;;5094036;28;19939;-82
2022/06/14 10:50:20;;;;;;;;;;;17.70;82.40;;;;;;5096256;28;19924;-82
2022/06/14 10:52:51;;;;;;;;;;;17.80;82.70;;;;;;5097688;28;20385;-82
2022/06/14 10:55:29;;;;;;;;;;;17.80;82.40;;;;;;5088362;28;20425;-82
2022/06/14 10:58:05;;;;;;;;;;;17.80;82.20;;;;;;5094154;28;19930;-81
2022/06/14 11:00:36;;;;;;;;;;;17.80;82.20;;;;;;5092359;28;19932;-82
2022/06/14 11:03:11;;;;;;;;;;;17.80;82.00;;;;;;5093479;28;19928;-82
2022/06/14 11:05:47;;;;;;;;;;;17.80;81.60;;;;;;5093394;28;19932;-82
2022/06/14 11:08:21;;;;;;;;;;;17.80;81.30;;;;;;5075540;28;19932;-82
2022/06/14 11:10:54;;;;;;;;;;;17.90;80.90;;;;;;5090021;28;19978;-82
2022/06/14 11:13:25;;;;;;;;;;;17.90;80.90;;;;;;5091670;28;19924;-81
2022/06/14 11:15:56;;;;;;;;;;;17.90;80.80;;;;;;5091439;28;19924;-82
2022/06/14 11:18:41;;;;;;;;;;;17.90;80.90;;;;;;5093428;28;19928;-82
2022/06/14 11:21:15;;;;;;;;;;;17.90;80.80;;;;;;5095181;28;20310;-82
2022/06/14 11:23:46;;;;;;;;;;;17.90;80.90;;;;;;5075823;28;19928;-81
2022/06/14 11:26:19;;;;;;;;;;;17.90;80.80;;;;;;5088652;28;19930;-81
2022/06/14 11:28:50;;;;;;;;;;;17.90;80.80;;;;;;5090917;28;19928;-81
2022/06/14 11:31:22;;;;;;;;;;;18.00;80.80;;;;;;5094131;28;20397;-82
2022/06/14 11:34:01;;;;;;;;;;;18.00;80.60;;;;;;5099227;28;20477;-82
2022/06/14 11:36:34;;;;;;;;;;;18.00;80.20;;;;;;5095114;28;19959;-82
2022/06/14 11:39:11;;;;;;;;;;;18.10;80.20;;;;;;5090606;28;20023;-81
2022/06/14 11:41:41;;;;;;;;;;;18.00;80.30;;;;;;5074359;28;19938;-82
2022/06/14 11:44:14;;;;;;;;;;;18.10;80.40;;;;;;5091291;28;19924;-81
2022/06/14 11:46:44;;;;;;;;;;;18.10;80.80;;;;;;5090519;28;19932;-81
2022/06/14 11:49:15;;;;;;;;;;;18.10;81.20;;;;;;5087561;28;20018;-82
2022/06/14 11:51:50;;;;;;;;;;;18.10;81.30;;;;;;5094225;28;19924;-81
2022/06/14 11:54:24;;;;;;;;;;;18.20;81.40;;;;;;5092484;28;19931;-82
2022/06/14 11:56:54;;;;;;;;;;;18.20;81.10;;;;;;5091517;28;19931;-82
2022/06/14 11:59:31;;;;;;;;;;;18.30;81.30;;;;;;5094732;28;19930;-82
2022/06/14 12:02:02;;;;;;;;;;;18.30;81.70;;;;;;5093476;28;19994;-81
2022/06/14 12:04:44;;;;;;;;;;;18.30;81.90;;;;;;5089140;28;19930;-81
2022/06/14 12:07:15;;;;;;;;;;;18.30;82.10;;;;;;5092372;28;20003;-82
2022/06/14 12:10:02;;;;;;;;;;;18.40;81.90;;;;;;5074048;28;19924;-82
2022/06/14 12:12:32;;;;;;;;;;;18.40;81.40;;;;;;5092638;28;20753;-81
2022/06/14 12:15:03;;;;;;;;;;;18.50;81.80;;;;;;5089950;28;19925;-82
2022/06/14 12:17:32;;;;;;;;;;;18.50;82.00;;;;;;5092523;28;19928;-82
2022/06/14 12:20:05;;;;;;;;;;;18.50;82.30;;;;;;5095881;28;19930;-82
2022/06/14 12:22:36;;;;;;;;;;;18.60;82.60;;;;;;5095027;28;19978;-81
2022/06/14 12:27:53;;;;;;;;;;;18.60;83.00;;;;;;5077435;28;19920;-81
2022/06/14 12:30:20;;;;;;;;;;;18.70;82.80;;;;;;5093288;28;19981;-82
2022/06/14 12:32:52;;;;;;;;;;;18.70;83.10;;;;;;5098760;28;19924;-82
2022/06/14 12:35:23;;;;;;;;;;;18.80;83.10;;;;;;5081260;28;19989;-82
2022/06/14 12:37:52;;;;;;;;;;;18.80;83.00;;;;;;5093497;28;19924;-82
2022/06/14 12:40:22;;;;;;;;;;;18.90;83.10;;;;;;5097689;28;19924;-82
2022/06/14 12:42:53;;;;;;;;;;;18.90;83.00;;;;;;5095392;28;19924;-82
2022/06/14 12:45:24;;;;;;;;;;;19.00;83.30;;;;;;5092597;28;19932;-82
2022/06/14 12:47:58;;;;;;;;;;;19.10;83.60;;;;;;5077279;28;19939;-82
2022/06/14 12:50:28;;;;;;;;;;;19.10;83.60;;;;;;5096891;28;19924;-82
2022/06/14 12:52:59;;;;;;;;;;;19.10;83.60;;;;;;5095218;28;19924;-83
2022/06/14 12:55:26;;;;;;;;;;;;;;;;;;5099878;28;19924;-83
2022/06/14 12:57:58;;;;;;;;;;;19.30;83.40;;;;;;5093277;28;19978;-81
2022/06/14 13:00:29;;;;;;;;;;;19.30;84.10;;;;;;5094663;28;20392;-81
2022/06/14 13:03:01;;;;;;;;;;;19.30;84.00;;;;;;5098237;28;20380;-81
2022/06/14 13:05:33;;;;;;;;;;;19.40;84.00;;;;;;5076719;28;20386;-80
2022/06/14 13:08:14;;;;;;;;;;;19.50;83.70;;;;;;5074230;28;19946;-81
2022/06/14 13:10:47;;;;;;;;;;;19.50;82.90;;;;;;5093527;28;19924;-81
2022/06/14 13:13:26;;;;;;;;;;;19.60;83.10;;;;;;5086366;28;20299;-81
2022/06/14 13:15:56;;;;;;;;;;;19.70;83.60;;;;;;5094461;28;19953;-81
2022/06/14 13:18:28;;;;;;;;;;;19.70;83.80;;;;;;5093078;28;19996;-81
2022/06/14 13:20:58;;;;;;;;;;;19.70;83.70;;;;;;5078283;28;19997;-81
2022/06/14 13:23:34;;;;;;;;;;;19.80;83.80;;;;;;5078172;28;19928;-81
2022/06/14 13:26:06;;;;;;;;;;;19.80;83.80;;;;;;5094370;28;19928;-81
2022/06/14 13:28:40;;;;;;;;;;;19.90;83.80;;;;;;5083026;28;19924;-81
2022/06/14 13:31:17;;;;;;;;;;;20.00;83.70;;;;;;5094148;28;20031;-81
2022/06/14 13:33:47;;;;;;;;;;;20.00;83.70;;;;;;5095648;28;19932;-81
2022/06/14 13:36:21;;;;;;;;;;;20.10;83.60;;;;;;5097965;28;20325;-81
2022/06/14 13:38:51;;;;;;;;;;;20.10;83.60;;;;;;5079117;28;19930;-81
2022/06/14 13:41:21;;;;;;;;;;;20.20;83.80;;;;;;5071850;28;19939;-82
2022/06/14 13:43:51;;;;;;;;;;;20.20;83.30;;;;;;5100576;28;20397;-81
2022/06/14 13:46:21;;;;;;;;;;;20.30;84.20;;;;;;5098346;28;19928;-80
2022/06/14 13:48:49;;;;;;;;;;;20.40;83.70;;;;;;5078874;28;19932;-81
2022/06/14 13:51:22;;;;;;;;;;;20.40;83.90;;;;;;5091586;28;19959;-81
2022/06/14 13:53:50;;;;;;;;;;;;;;;;;;5098156;28;19978;-80
2022/06/14 13:56:19;;;;;;;;;;;20.50;83.70;;;;;;5094543;28;19924;-83
2022/06/14 13:58:49;;;;;;;;;;;20.60;84.50;;;;;;5082077;28;19931;-81
2022/06/14 14:01:19;;;;;;;;;;;20.60;84.40;;;;;;5089389;28;19932;-82
2022/06/14 14:03:48;;;;;;;;;;;20.70;84.60;;;;;;5079716;28;19923;-81
2022/06/14 14:06:18;;;;;;;;;;;20.80;84.50;;;;;;5079985;28;19930;-81
2022/06/14 14:08:53;;;;;;;;;;;20.80;84.50;;;;;;5095802;28;19947;-81
2022/06/14 14:11:25;;;;;;;;;;;20.90;84.60;;;;;;5091702;28;19932;-81
2022/06/14 14:13:55;;;;;;;;;;;20.90;84.30;;;;;;5076118;28;20019;-81
2022/06/14 14:16:25;;;;;;;;;;;20.90;84.10;;;;;;5080966;28;19946;-81
2022/06/14 14:18:56;;;;;;;;;;;21.00;84.10;;;;;;5074981;28;19925;-80
2022/06/14 14:21:26;;;;;;;;;;;21.10;84.20;;;;;;5078607;28;19924;-80
2022/06/14 14:24:14;;;;;;;;;;;21.20;84.20;;;;;;5098475;28;19924;-81
2022/06/14 14:26:45;;;;;;;;;;;21.20;84.10;;;;;;5092085;28;19928;-80
2022/06/14 14:29:16;;;;;;;;;;;21.30;84.00;;;;;;5093760;28;19924;-81
2022/06/14 14:31:48;;;;;;;;;;;21.30;83.90;;;;;;5098119;28;19924;-80
2022/06/14 14:34:20;;;;;;;;;;;21.40;83.90;;;;;;5100588;28;19936;-81
2022/06/14 14:36:52;;;;;;;;;;;21.40;83.80;;;;;;5097496;28;19924;-81
2022/06/14 14:39:22;;;;;;;;;;;21.40;83.20;;;;;;5096613;28;19942;-81
2022/06/14 14:41:54;;;;;;;;;;;21.50;83.80;;;;;;5096788;28;19935;-80
2022/06/14 14:44:26;;;;;;;;;;;21.60;83.60;;;;;;5074842;28;19925;-80
2022/06/14 14:46:56;;;;;;;;;;;21.70;83.50;;;;;;5074514;28;19937;-81
2022/06/14 14:49:27;;;;;;;;;;;21.70;83.40;;;;;;5091710;28;20401;-80
2022/06/14 14:51:58;;;;;;;;;;;21.80;83.40;;;;;;5076751;28;19928;-80
2022/06/14 14:54:31;;;;;;;;;;;21.80;83.00;;;;;;5067760;28;19928;-80
2022/06/14 14:57:02;;;;;;;;;;;21.80;82.70;;;;;;5094371;28;20121;-80
2022/06/14 14:59:31;;;;;;;;;;;21.90;82.70;;;;;;5071969;28;20054;-81
2022/06/14 15:07:38;;;;;;;;;;;22.10;82.70;;;;;;5094143;28;19930;-80
2022/06/14 15:10:08;;;;;;;;;;;22.20;82.60;;;;;;5087259;28;19931;-81
2022/06/14 15:12:43;;;;;;;;;;;22.20;82.40;;;;;;5090960;28;19924;-80